Time;durP1;ratioP1;P1;durP2;ratioP2;P2;SDS_P1;SDS_P2;PMS_P1;PMS_P2;Temp;Humidity;BMP_temperature;BMP_pressure;BME280_temperature;BME280_humidity;BME280_pressure;Samples;Min_cycle;Max_cycle;Signal;HPM_P1;HPM_P2
2022/07/13 00:00:35;;;;;;;1.10;0.95;;;21.60;62.30;;;;;;5021628;28;20022;-55
2022/07/13 00:03:00;;;;;;;1.50;0.95;;;21.60;62.20;;;;;;5022347;28;20033;-63
2022/07/13 00:05:26;;;;;;;1.80;1.30;;;21.60;62.20;;;;;;5022762;28;20067;-55
2022/07/13 00:07:51;;;;;;;2.15;1.00;;;21.60;62.30;;;;;;5004105;28;20866;-54
2022/07/13 00:10:17;;;;;;;0.80;0.70;;;21.60;62.20;;;;;;5021430;28;20113;-55
2022/07/13 00:12:42;;;;;;;1.30;1.20;;;21.60;62.20;;;;;;5020589;28;20060;-56
2022/07/13 00:15:09;;;;;;;1.25;0.82;;;21.60;62.20;;;;;;5015285;28;20044;-55
2022/07/13 00:17:34;;;;;;;2.10;1.05;;;21.60;62.20;;;;;;5004323;28;20512;-56
2022/07/13 00:20:00;;;;;;;2.15;0.88;;;21.60;62.20;;;;;;5021155;28;20037;-55
2022/07/13 00:22:25;;;;;;;1.60;0.90;;;21.60;62.20;;;;;;5020710;28;20430;-55
2022/07/13 00:24:51;;;;;;;1.10;0.90;;;21.60;62.20;;;;;;5021457;28;20034;-55
2022/07/13 00:27:16;;;;;;;1.20;1.10;;;21.60;62.20;;;;;;5021686;28;20033;-56
2022/07/13 00:29:42;;;;;;;1.25;0.93;;;21.60;62.20;;;;;;5003842;28;20033;-58
2022/07/13 00:32:07;;;;;;;1.42;1.08;;;21.60;62.20;;;;;;5021782;28;20079;-58
2022/07/13 00:34:33;;;;;;;1.10;1.00;;;21.60;62.20;;;;;;5022071;28;20060;-57
2022/07/13 00:36:58;;;;;;;2.25;0.90;;;21.50;62.20;;;;;;5022297;28;20029;-56
2022/07/13 00:39:24;;;;;;;1.63;0.82;;;21.50;62.10;;;;;;5021319;28;20030;-55
2022/07/13 00:41:49;;;;;;;1.77;1.00;;;21.60;62.20;;;;;;5021172;28;20045;-55
2022/07/13 00:44:15;;;;;;;3.30;1.27;;;21.60;62.20;;;;;;5021082;28;20407;-57
2022/07/13 00:46:45;;;;;;;1.48;1.20;;;21.60;62.10;;;;;;5021626;28;20371;-58
2022/07/13 00:49:11;;;;;;;1.38;1.27;;;21.60;62.10;;;;;;5020841;28;20033;-57
2022/07/13 00:51:37;;;;;;;1.08;0.98;;;21.60;62.10;;;;;;4987146;28;20109;-58
2022/07/13 00:54:03;;;;;;;1.33;1.15;;;21.60;62.00;;;;;;5003726;28;20053;-57
2022/07/13 00:56:28;;;;;;;1.30;0.90;;;21.50;62.00;;;;;;5003868;28;20105;-55
2022/07/13 00:58:54;;;;;;;3.92;1.10;;;21.50;62.10;;;;;;5020533;28;20515;-55
2022/07/13 01:01:19;;;;;;;1.23;1.05;;;21.50;62.00;;;;;;5003247;28;20033;-56
2022/07/13 01:03:45;;;;;;;2.55;1.20;;;21.50;62.00;;;;;;5021124;28;20026;-53
2022/07/13 01:06:10;;;;;;;1.58;0.85;;;21.50;62.00;;;;;;5020324;28;20024;-57
2022/07/13 01:08:36;;;;;;;1.30;0.90;;;21.50;62.00;;;;;;5019862;28;20511;-57
2022/07/13 01:11:01;;;;;;;1.17;0.95;;;21.60;62.00;;;;;;5020412;28;20079;-56
2022/07/13 01:13:27;;;;;;;1.20;0.80;;;21.50;62.00;;;;;;5019978;28;20021;-56
2022/07/13 01:15:53;;;;;;;3.25;1.00;;;21.50;62.00;;;;;;5003558;28;20735;-56
2022/07/13 01:18:18;;;;;;;1.45;1.00;;;21.60;62.00;;;;;;5002809;28;20097;-58
2022/07/13 01:20:44;;;;;;;2.88;1.10;;;21.50;62.00;;;;;;5019669;28;20057;-56
2022/07/13 01:23:10;;;;;;;1.35;1.17;;;21.50;62.00;;;;;;5020962;28;20458;-56
2022/07/13 01:25:35;;;;;;;1.70;1.00;;;21.60;62.10;;;;;;5021038;28;20036;-58
2022/07/13 01:28:01;;;;;;;2.28;0.95;;;21.60;62.10;;;;;;5003303;28;20424;-57
2022/07/13 01:30:27;;;;;;;1.10;0.93;;;21.50;62.00;;;;;;5003094;28;20725;-56
2022/07/13 01:32:52;;;;;;;1.35;1.00;;;21.60;62.20;;;;;;5020579;28;20113;-57
2022/07/13 01:35:18;;;;;;;1.52;1.05;;;21.50;62.10;;;;;;5020011;28;20029;-57
2022/07/13 01:37:44;;;;;;;1.70;1.00;;;21.50;62.10;;;;;;5003026;28;20056;-57
2022/07/13 01:40:10;;;;;;;1.23;1.13;;;21.50;62.10;;;;;;5002497;28;20029;-56
2022/07/13 01:42:46;;;;;;;2.17;1.20;;;21.60;62.20;;;;;;5002313;28;20087;-55
2022/07/13 01:45:12;;;;;;;0.73;0.73;;;21.50;62.20;;;;;;5001840;28;20377;-57
2022/07/13 01:47:38;;;;;;;2.25;0.80;;;21.50;62.20;;;;;;5002323;28;20550;-57
2022/07/13 01:50:05;;;;;;;0.90;0.90;;;21.50;62.20;;;;;;5019996;28;20045;-56
2022/07/13 01:52:30;;;;;;;1.55;1.17;;;21.50;62.30;;;;;;5020920;28;20434;-55
2022/07/13 01:54:56;;;;;;;1.17;0.93;;;21.50;62.30;;;;;;5003199;28;21482;-57
2022/07/13 01:57:21;;;;;;;1.20;1.08;;;21.50;62.30;;;;;;5020427;28;20037;-57
2022/07/13 01:59:47;;;;;;;1.45;0.90;;;21.50;62.40;;;;;;5019637;28;20022;-56
2022/07/13 02:02:12;;;;;;;1.35;0.90;;;21.50;63.00;;;;;;5020337;28;20045;-56
2022/07/13 02:04:38;;;;;;;1.33;1.00;;;21.50;62.40;;;;;;5003140;28;20036;-57
2022/07/13 02:07:03;;;;;;;1.48;0.88;;;21.50;63.00;;;;;;5003172;28;20021;-58
2022/07/13 02:09:29;;;;;;;1.15;1.05;;;21.50;62.30;;;;;;5020246;28;20057;-57
2022/07/13 02:11:55;;;;;;;1.38;1.00;;;21.50;62.40;;;;;;5020166;28;20025;-58
2022/07/13 02:14:20;;;;;;;1.20;1.10;;;21.50;62.30;;;;;;5002651;28;20045;-56
2022/07/13 02:16:46;;;;;;;0.98;0.90;;;21.50;62.30;;;;;;5020169;28;20033;-56
2022/07/13 02:19:11;;;;;;;0.90;0.90;;;21.50;62.30;;;;;;5001135;28;20594;-56
2022/07/13 02:21:37;;;;;;;0.82;0.82;;;21.50;62.30;;;;;;5019500;28;20053;-56
2022/07/13 02:24:02;;;;;;;1.20;0.95;;;21.40;62.30;;;;;;5002280;28;20034;-56
2022/07/13 02:26:28;;;;;;;1.25;1.17;;;21.50;62.40;;;;;;5020350;28;20117;-56
2022/07/13 02:28:53;;;;;;;1.50;1.00;;;21.40;62.30;;;;;;5019113;28;20060;-55
2022/07/13 02:31:19;;;;;;;2.28;1.02;;;21.50;62.40;;;;;;5019264;28;20079;-57
2022/07/13 02:33:44;;;;;;;1.00;1.00;;;21.40;62.30;;;;;;5019309;28;20030;-58
2022/07/13 02:36:10;;;;;;;0.98;0.82;;;21.40;62.30;;;;;;5019621;28;20033;-57
2022/07/13 02:38:35;;;;;;;1.00;0.90;;;21.40;62.40;;;;;;5018905;28;20620;-55
2022/07/13 02:41:01;;;;;;;0.82;0.70;;;21.50;62.40;;;;;;5018822;28;20107;-55
2022/07/13 02:43:26;;;;;;;1.30;0.80;;;21.40;62.40;;;;;;5001455;28;20343;-57
2022/07/13 02:45:52;;;;;;;0.90;0.90;;;21.40;62.30;;;;;;5018749;28;20052;-55
2022/07/13 02:48:18;;;;;;;1.10;0.90;;;21.50;63.00;;;;;;5001031;28;20030;-57
2022/07/13 02:50:44;;;;;;;1.27;0.93;;;21.40;62.40;;;;;;5001397;28;20037;-53
2022/07/13 02:53:09;;;;;;;1.40;1.13;;;21.40;62.30;;;;;;5001660;28;20103;-57
2022/07/13 02:55:35;;;;;;;1.08;0.90;;;21.50;62.40;;;;;;5001750;28;20022;-57
2022/07/13 02:58:00;;;;;;;1.50;1.27;;;21.40;62.30;;;;;;5002201;28;20025;-56
2022/07/13 03:00:26;;;;;;;1.55;1.17;;;21.40;62.30;;;;;;5018886;28;20281;-56
2022/07/13 03:02:51;;;;;;;2.25;1.20;;;21.40;62.40;;;;;;5000479;28;20308;-57
2022/07/13 03:05:17;;;;;;;1.50;0.82;;;21.40;62.30;;;;;;5019182;28;20026;-55
2022/07/13 03:07:43;;;;;;;1.83;1.30;;;21.40;62.40;;;;;;5019043;28;20079;-56
2022/07/13 03:10:08;;;;;;;2.25;0.98;;;21.40;62.30;;;;;;4984079;28;20477;-55
2022/07/13 03:12:34;;;;;;;0.80;0.80;;;21.50;62.40;;;;;;5000582;28;20253;-57
2022/07/13 03:14:59;;;;;;;1.50;1.10;;;21.40;62.30;;;;;;5018731;28;20129;-56
2022/07/13 03:17:25;;;;;;;1.00;0.90;;;21.50;62.40;;;;;;5018508;28;20674;-56
2022/07/13 03:19:50;;;;;;;1.15;1.05;;;21.50;62.30;;;;;;5000156;28;20033;-56
2022/07/13 03:22:16;;;;;;;0.90;0.90;;;21.40;62.30;;;;;;5000741;28;20038;-55
2022/07/13 03:24:41;;;;;;;1.13;1.00;;;21.40;62.30;;;;;;5018435;28;20075;-57
2022/07/13 03:27:07;;;;;;;2.10;0.90;;;21.40;62.30;;;;;;4980542;28;20026;-55
2022/07/13 03:29:32;;;;;;;1.27;0.93;;;21.50;62.40;;;;;;4998224;28;20497;-57
2022/07/13 03:31:58;;;;;;;1.20;1.08;;;21.40;62.40;;;;;;5015107;28;20030;-56
2022/07/13 03:34:23;;;;;;;0.95;0.90;;;21.40;62.40;;;;;;5012759;28;20560;-55
2022/07/13 03:36:49;;;;;;;1.17;1.08;;;21.40;62.40;;;;;;5019378;28;20580;-57
2022/07/13 03:39:14;;;;;;;1.00;0.90;;;21.40;62.50;;;;;;5018413;28;20083;-57
2022/07/13 03:41:40;;;;;;;1.10;1.00;;;21.40;62.40;;;;;;5018423;28;20064;-57
2022/07/13 03:44:06;;;;;;;1.58;1.33;;;21.50;62.40;;;;;;5001261;28;20246;-56
2022/07/13 03:46:32;;;;;;;1.20;1.10;;;21.40;62.30;;;;;;5001495;28;20044;-57
2022/07/13 03:48:57;;;;;;;1.05;0.95;;;21.40;62.40;;;;;;5000540;28;20026;-57
2022/07/13 03:51:22;;;;;;;0.93;0.93;;;21.40;62.20;;;;;;5018959;28;20025;-56
2022/07/13 03:53:48;;;;;;;1.48;1.25;;;21.40;62.40;;;;;;5018839;28;20048;-59
2022/07/13 03:56:13;;;;;;;1.27;1.10;;;21.50;62.40;;;;;;5018870;28;20080;-57
2022/07/13 03:58:39;;;;;;;1.30;1.20;;;21.40;62.40;;;;;;5019800;28;20558;-57
2022/07/13 04:01:05;;;;;;;0.80;0.80;;;21.40;62.30;;;;;;5022271;28;20025;-58
2022/07/13 04:03:31;;;;;;;2.45;1.13;;;21.40;62.40;;;;;;5005126;28;20095;-57
2022/07/13 04:05:56;;;;;;;1.33;1.00;;;21.50;62.40;;;;;;5006445;28;20033;-55
2022/07/13 04:08:22;;;;;;;1.38;1.02;;;21.50;62.40;;;;;;5020912;28;20106;-57
2022/07/13 04:10:47;;;;;;;1.38;1.10;;;21.40;62.40;;;;;;5020436;28;20021;-57
2022/07/13 04:13:13;;;;;;;3.08;1.08;;;21.40;62.50;;;;;;5021599;28;20112;-57
2022/07/13 04:15:38;;;;;;;2.90;1.15;;;21.50;62.60;;;;;;4994439;28;20026;-56
2022/07/13 04:18:04;;;;;;;4.60;1.30;;;21.40;62.60;;;;;;5022116;28;20021;-57
2022/07/13 04:20:29;;;;;;;4.97;1.30;;;21.40;62.60;;;;;;5002719;28;20508;-57
2022/07/13 04:22:55;;;;;;;3.20;1.25;;;21.40;62.70;;;;;;5021577;28;20049;-56
2022/07/13 04:25:21;;;;;;;7.38;1.50;;;21.40;62.70;;;;;;5021403;28;20155;-56
2022/07/13 04:27:46;;;;;;;4.20;1.35;;;21.40;63.00;;;;;;5003308;28;20029;-57
2022/07/13 04:30:12;;;;;;;4.85;1.55;;;21.50;63.00;;;;;;5019096;28;20475;-57
2022/07/13 04:32:37;;;;;;;4.10;1.30;;;21.40;62.80;;;;;;5022483;28;20038;-53
2022/07/13 04:35:03;;;;;;;6.82;1.20;;;21.40;62.90;;;;;;5023352;28;20030;-56
2022/07/13 04:37:28;;;;;;;8.60;1.63;;;21.40;63.00;;;;;;5023105;28;20034;-57
2022/07/13 04:39:54;;;;;;;3.95;1.48;;;21.40;63.40;;;;;;5004797;28;20084;-58
2022/07/13 04:42:19;;;;;;;9.32;1.88;;;21.40;63.30;;;;;;5022456;28;20386;-57
2022/07/13 04:44:45;;;;;;;11.52;2.38;;;21.40;63.10;;;;;;5022073;28;20636;-56
2022/07/13 04:47:10;;;;;;;11.73;2.10;;;21.40;63.10;;;;;;5019436;28;20035;-57
2022/07/13 04:49:36;;;;;;;9.38;2.05;;;21.40;63.30;;;;;;5018212;28;20116;-57
2022/07/13 04:52:01;;;;;;;12.60;2.10;;;21.50;63.30;;;;;;5020241;28;20078;-54
2022/07/13 04:54:27;;;;;;;11.55;2.20;;;21.50;63.00;;;;;;5018469;28;20029;-55
2022/07/13 04:56:52;;;;;;;10.25;1.75;;;21.50;62.90;;;;;;5020102;28;20033;-57
2022/07/13 04:59:18;;;;;;;13.50;2.53;;;21.50;62.80;;;;;;5017893;28;20550;-57
2022/07/13 05:01:43;;;;;;;12.77;2.25;;;21.50;62.70;;;;;;5002689;28;20064;-56
2022/07/13 05:04:09;;;;;;;8.20;2.03;;;21.50;62.70;;;;;;5022388;28;20030;-56
2022/07/13 05:06:35;;;;;;;10.32;1.77;;;21.50;62.70;;;;;;5022058;28;20033;-57
2022/07/13 05:09:01;;;;;;;5.68;1.95;;;21.40;62.50;;;;;;5021599;28;20124;-56
2022/07/13 05:11:26;;;;;;;7.97;1.65;;;21.40;62.50;;;;;;5011176;28;20328;-54
2022/07/13 05:13:52;;;;;;;7.72;2.03;;;21.40;62.50;;;;;;5021333;28;20553;-57
2022/07/13 05:16:18;;;;;;;11.40;1.95;;;21.40;62.40;;;;;;5000434;28;20215;-55
2022/07/13 05:18:43;;;;;;;10.32;2.13;;;21.30;62.40;;;;;;5004218;28;20075;-56
2022/07/13 05:21:10;;;;;;;9.10;1.92;;;21.40;62.40;;;;;;5003013;28;20080;-57
2022/07/13 05:23:36;;;;;;;11.73;2.55;;;21.40;62.50;;;;;;5021383;28;20017;-54
2022/07/13 05:26:01;;;;;;;12.07;2.53;;;21.40;62.70;;;;;;5021653;28;20428;-57
2022/07/13 05:28:27;;;;;;;15.15;2.17;;;21.50;62.70;;;;;;5019433;28;20480;-58
2022/07/13 05:30:52;;;;;;;12.98;2.20;;;21.50;62.70;;;;;;5020206;28;20029;-58
2022/07/13 05:33:20;;;;;;;11.65;2.00;;;21.50;62.40;;;;;;5011487;28;20168;-57
2022/07/13 05:35:45;;;;;;;9.82;2.10;;;21.50;62.30;;;;;;5019887;28;20082;-58
2022/07/13 05:38:11;;;;;;;10.52;1.70;;;21.50;62.10;;;;;;5020124;28;20029;-55
2022/07/13 05:40:37;;;;;;;13.73;2.35;;;21.50;61.80;;;;;;5020159;28;20017;-56
2022/07/13 05:43:02;;;;;;;8.38;1.92;;;21.50;61.60;;;;;;5020908;28;20523;-56
2022/07/13 05:45:28;;;;;;;5.00;1.52;;;21.50;61.60;;;;;;5003486;28;20115;-58
2022/07/13 05:47:54;;;;;;;10.38;1.77;;;21.50;61.60;;;;;;5003227;28;20033;-57
2022/07/13 05:50:19;;;;;;;8.23;2.13;;;21.50;61.60;;;;;;5020459;28;20034;-55
2022/07/13 05:52:45;;;;;;;8.70;1.73;;;21.50;61.60;;;;;;5020468;28;20048;-57
2022/07/13 05:55:12;;;;;;;4.32;1.77;;;21.50;61.70;;;;;;5003830;28;20097;-57
2022/07/13 05:57:37;;;;;;;11.05;1.65;;;21.50;61.80;;;;;;5003479;28;20029;-56
2022/07/13 06:00:05;;;;;;;6.38;1.40;;;21.50;61.90;;;;;;5019600;28;20026;-57
2022/07/13 06:02:31;;;;;;;12.77;2.17;;;21.50;62.00;;;;;;4999533;28;20037;-57
2022/07/13 06:04:56;;;;;;;5.07;1.30;;;21.50;62.00;;;;;;5014368;28;20029;-56
2022/07/13 06:07:22;;;;;;;8.25;1.63;;;21.50;61.90;;;;;;5000970;28;20032;-55
2022/07/13 06:09:47;;;;;;;7.38;1.33;;;21.50;62.20;;;;;;5018475;28;20029;-56
2022/07/13 06:12:13;;;;;;;7.90;1.90;;;21.50;62.30;;;;;;5017533;28;20040;-57
2022/07/13 06:14:40;;;;;;;6.68;1.20;;;21.50;62.10;;;;;;5019007;28;20098;-57
2022/07/13 06:17:06;;;;;;;3.85;1.45;;;21.50;62.20;;;;;;5002113;28;20421;-58
2022/07/13 06:19:33;;;;;;;12.27;1.33;;;21.50;62.10;;;;;;5020394;28;20033;-55
2022/07/13 06:21:59;;;;;;;5.35;1.55;;;21.50;62.20;;;;;;5001995;28;20049;-56
2022/07/13 06:24:24;;;;;;;2.08;1.42;;;21.50;62.00;;;;;;5020736;28;20469;-57
2022/07/13 06:26:50;;;;;;;7.22;1.38;;;21.50;62.30;;;;;;5020571;28;20120;-56
2022/07/13 06:29:15;;;;;;;5.45;1.70;;;21.50;62.40;;;;;;5019887;28;20039;-57
2022/07/13 06:31:40;;;;;;;3.03;1.15;;;21.50;61.80;;;;;;5020107;28;20029;-56
2022/07/13 06:34:06;;;;;;;4.13;1.50;;;21.50;63.10;;;;;;5019991;28;20025;-56
2022/07/13 06:36:32;;;;;;;6.50;1.95;;;21.50;62.50;;;;;;5020380;28;20196;-57
2022/07/13 06:38:57;;;;;;;5.55;1.63;;;21.50;62.30;;;;;;5019426;28;20411;-58
2022/07/13 06:41:23;;;;;;;7.38;2.08;;;21.50;63.00;;;;;;5019806;28;20029;-58
2022/07/13 06:43:48;;;;;;;6.35;1.63;;;21.50;62.60;;;;;;5019829;28;20416;-54
2022/07/13 06:46:14;;;;;;;6.30;1.40;;;21.50;62.60;;;;;;5020465;28;20088;-56
2022/07/13 06:48:39;;;;;;;7.85;1.83;;;21.50;61.30;;;;;;5019348;28;20116;-56
2022/07/13 06:51:05;;;;;;;8.15;1.85;;;21.50;62.30;;;;;;5020438;28;20021;-56
2022/07/13 06:53:30;;;;;;;5.13;1.33;;;21.50;62.20;;;;;;5020173;28;20550;-56
2022/07/13 06:55:56;;;;;;;4.25;1.52;;;21.50;62.10;;;;;;5002774;28;20033;-56
2022/07/13 06:58:21;;;;;;;10.10;1.50;;;21.40;61.90;;;;;;5019877;28;20072;-56
2022/07/13 07:00:47;;;;;;;6.65;2.00;;;21.50;61.90;;;;;;5001780;28;21095;-57
2022/07/13 07:03:13;;;;;;;10.07;1.70;;;21.50;62.30;;;;;;5002342;28;20083;-56
2022/07/13 07:05:39;;;;;;;5.53;2.00;;;21.50;62.60;;;;;;5003040;28;20037;-57
2022/07/13 07:08:04;;;;;;;7.10;1.70;;;21.50;61.90;;;;;;5019289;28;20037;-55
2022/07/13 07:10:30;;;;;;;4.35;1.50;;;21.50;62.40;;;;;;5019147;28;20041;-57
2022/07/13 07:12:56;;;;;;;8.90;1.58;;;21.50;62.20;;;;;;5001542;28;20022;-57
2022/07/13 07:15:21;;;;;;;7.30;1.90;;;21.50;61.70;;;;;;5020145;28;20099;-58
2022/07/13 07:17:47;;;;;;;5.10;1.23;;;21.50;62.20;;;;;;5019708;28;20080;-57
2022/07/13 07:20:12;;;;;;;6.35;1.80;;;21.50;61.90;;;;;;4985002;28;20121;-57
2022/07/13 07:22:38;;;;;;;7.55;1.35;;;21.50;61.80;;;;;;5001928;28;20045;-56
2022/07/13 07:25:04;;;;;;;4.28;1.63;;;21.50;61.70;;;;;;5019412;28;20694;-55
2022/07/13 07:27:29;;;;;;;4.13;1.10;;;21.50;61.60;;;;;;5019343;28;20038;-57
2022/07/13 07:29:55;;;;;;;9.25;1.65;;;21.50;61.50;;;;;;5019552;28;20516;-56
2022/07/13 07:32:21;;;;;;;8.27;1.48;;;21.50;61.50;;;;;;5003212;28;20132;-56
2022/07/13 07:34:46;;;;;;;5.43;1.25;;;21.50;61.20;;;;;;5022962;28;20104;-57
2022/07/13 07:37:12;;;;;;;5.57;1.70;;;21.50;60.40;;;;;;5005557;28;20129;-57
2022/07/13 07:39:37;;;;;;;4.50;1.90;;;21.50;60.50;;;;;;5022583;28;20524;-56
2022/07/13 07:42:04;;;;;;;2.88;1.30;;;21.60;60.00;;;;;;5022714;28;20729;-54
2022/07/13 07:44:29;;;;;;;5.28;1.48;;;21.50;59.80;;;;;;5005975;28;20475;-57
2022/07/13 07:46:55;;;;;;;5.25;1.52;;;21.60;60.00;;;;;;5006226;28;20030;-56
2022/07/13 07:49:20;;;;;;;3.03;1.52;;;21.60;60.20;;;;;;5005683;28;20036;-56
2022/07/13 07:51:46;;;;;;;3.97;1.20;;;21.60;60.40;;;;;;5023809;28;20026;-54
2022/07/13 07:54:11;;;;;;;2.55;0.95;;;21.60;60.40;;;;;;5023072;28;20033;-56
2022/07/13 07:56:37;;;;;;;4.43;1.30;;;21.60;60.40;;;;;;5023393;28;20556;-56
2022/07/13 07:59:02;;;;;;;2.60;1.40;;;21.60;60.30;;;;;;4988588;28;20022;-56
2022/07/13 08:01:28;;;;;;;3.38;1.50;;;21.60;60.30;;;;;;5023636;28;20044;-56
2022/07/13 08:03:54;;;;;;;2.42;1.23;;;21.60;60.30;;;;;;5023148;28;20112;-58
2022/07/13 08:06:20;;;;;;;5.03;1.20;;;21.60;60.30;;;;;;5006240;28;20124;-56
2022/07/13 08:08:45;;;;;;;2.70;1.42;;;21.60;60.20;;;;;;5022443;28;20162;-58
2022/07/13 08:11:16;;;;;;;2.17;1.33;;;21.60;59.80;;;;;;5021965;28;20638;-58
2022/07/13 08:13:42;;;;;;;3.58;1.08;;;21.60;59.90;;;;;;5004712;28;20037;-56
2022/07/13 08:16:07;;;;;;;3.63;1.08;;;21.60;59.80;;;;;;5023091;28;20528;-58
2022/07/13 08:18:33;;;;;;;2.88;1.40;;;21.60;59.80;;;;;;5004464;28;20079;-57
2022/07/13 08:20:58;;;;;;;2.42;1.35;;;21.60;59.70;;;;;;5004681;28;20078;-57
2022/07/13 08:26:08;;;;;;;3.90;1.20;;;21.60;59.50;;;;;;5022291;28;20725;-55
2022/07/13 08:28:34;;;;;;;4.15;1.00;;;21.70;59.60;;;;;;5003928;28;20029;-57
2022/07/13 08:30:59;;;;;;;3.42;1.00;;;21.70;59.70;;;;;;5021721;28;20136;-57
2022/07/13 08:38:53;;;;;;;7.35;1.88;;;21.70;59.40;;;;;;5021431;28;20519;-57
2022/07/13 08:41:19;;;;;;;15.70;2.67;;;21.70;59.40;;;;;;5038263;22;20081;-65
2022/07/13 08:43:44;;;;;;;15.27;2.88;;;21.70;59.30;;;;;;5012076;28;20750;-66
2022/07/13 08:46:10;;;;;;;10.90;2.33;;;21.70;58.90;;;;;;5035729;28;20076;-66
2022/07/13 08:48:37;;;;;;;6.22;2.00;;;21.80;57.50;;;;;;5025080;28;20022;-65
2022/07/13 08:51:04;;;;;;;5.50;1.63;;;21.80;57.50;;;;;;5026672;28;20025;-66
2022/07/13 08:53:29;;;;;;;6.50;1.60;;;21.90;57.30;;;;;;5009109;28;20033;-66
2022/07/13 08:55:56;;;;;;;7.55;2.00;;;21.90;57.40;;;;;;5024801;28;20017;-66
2022/07/13 08:58:22;;;;;;;3.47;1.40;;;21.90;57.40;;;;;;5024989;28;20017;-65
2022/07/13 09:00:48;;;;;;;5.40;1.63;;;21.90;57.40;;;;;;5024945;28;20509;-66
2022/07/13 09:03:13;;;;;;;3.70;1.95;;;21.90;57.60;;;;;;5008799;28;20033;-65
2022/07/13 09:05:39;;;;;;;5.03;1.38;;;21.90;57.70;;;;;;5026856;28;20017;-66
2022/07/13 09:08:09;;;;;;;1.75;1.30;;;21.80;57.80;;;;;;5008832;28;20385;-66
2022/07/13 09:10:55;;;;;;;2.28;1.30;;;21.90;57.80;;;;;;5024203;28;20021;-66
2022/07/13 09:13:38;;;;;;;1.23;1.13;;;21.90;57.30;;;;;;5008110;28;20075;-66
2022/07/13 09:16:18;;;;;;;8.48;1.92;;;21.90;57.30;;;;;;5026466;28;20037;-66
2022/07/13 09:18:44;;;;;;;12.35;2.10;;;21.90;57.70;;;;;;5008018;28;20029;-66
2022/07/13 09:21:09;;;;;;;9.00;2.13;;;22.00;58.10;;;;;;5008561;28;20575;-66
2022/07/13 09:23:35;;;;;;;6.05;1.95;;;22.10;58.10;;;;;;5026221;28;20022;-66
2022/07/13 09:26:00;;;;;;;10.15;1.40;;;22.10;57.60;;;;;;5025797;28;20555;-66
2022/07/13 09:28:26;;;;;;;5.07;1.50;;;22.10;57.40;;;;;;5026009;28;20029;-65
2022/07/13 09:30:51;;;;;;;1.50;1.10;;;22.10;57.40;;;;;;5025160;28;20025;-66
2022/07/13 09:33:36;;;;;;;2.88;1.48;;;22.10;57.30;;;;;;5024554;28;20095;-66
2022/07/13 09:36:28;;;;;;;2.90;1.25;;;22.10;57.40;;;;;;5008686;28;20022;-66
2022/07/13 09:38:53;;;;;;;2.10;1.15;;;22.10;57.30;;;;;;5022686;28;20034;-66
2022/07/13 09:41:21;;;;;;;3.47;1.40;;;22.10;57.30;;;;;;5024307;28;20033;-66
2022/07/13 09:47:00;;;;;;;5.35;1.30;;;22.10;57.30;;;;;;5025134;28;20033;-66
2022/07/13 09:49:42;;;;;;;2.05;1.17;;;22.10;57.50;;;;;;5007425;28;20053;-65
2022/07/13 09:52:12;;;;;;;3.42;1.67;;;22.10;57.50;;;;;;5024396;28;20537;-66
2022/07/13 09:54:39;;;;;;;12.05;3.65;;;22.10;57.50;;;;;;5024288;28;20026;-66
2022/07/13 09:57:08;;;;;;;10.40;2.85;;;22.10;57.10;;;;;;5024270;28;20013;-66
2022/07/13 09:59:36;;;;;;;13.23;3.10;;;22.10;57.10;;;;;;5023682;28;20067;-66
2022/07/13 10:02:02;;;;;;;13.02;3.53;;;22.10;57.20;;;;;;5024228;28;20025;-66
2022/07/13 10:04:28;;;;;;;8.25;2.42;;;22.10;57.30;;;;;;5025341;28;20520;-66
2022/07/13 10:06:53;;;;;;;6.95;2.08;;;22.10;57.30;;;;;;5025814;28;20020;-66
2022/07/13 10:09:26;;;;;;;6.68;2.35;;;22.10;57.10;;;;;;5025100;28;20032;-65
2022/07/13 10:11:52;;;;;;;5.35;1.88;;;22.20;57.90;;;;;;5024627;28;20108;-66
2022/07/13 10:14:18;;;;;;;5.30;2.03;;;22.20;57.20;;;;;;5027009;28;20105;-65
2022/07/13 10:16:43;;;;;;;4.05;1.90;;;22.20;57.30;;;;;;5024623;28;20021;-66
2022/07/13 10:19:10;;;;;;;2.38;1.33;;;22.20;57.40;;;;;;5025185;28;20104;-64
2022/07/13 10:22:06;;;;;;;2.42;1.58;;;22.20;57.10;;;;;;5026755;28;20025;-65
2022/07/13 10:24:32;;;;;;;;;;;22.20;57.20;;;;;;5004946;28;20054;-63
2022/07/13 10:27:27;;;;;;;4.22;1.70;;;22.20;57.00;;;;;;5005426;28;19947;-65
2022/07/13 10:29:57;;;;;;;5.10;1.30;;;22.20;56.90;;;;;;5005923;28;20042;-66
2022/07/13 10:32:25;;;;;;;3.75;1.02;;;22.20;56.70;;;;;;5025012;28;20040;-66
2022/07/13 10:34:51;;;;;;;2.70;1.23;;;22.30;56.50;;;;;;5023827;28;20675;-66
2022/07/13 10:37:17;;;;;;;6.85;1.40;;;22.30;56.40;;;;;;5025123;28;20176;-66
2022/07/13 10:40:10;;;;;;;4.97;1.48;;;22.40;56.30;;;;;;5023391;28;20084;-66
2022/07/13 10:42:54;;;;;;;2.33;0.95;;;22.40;56.10;;;;;;5025098;28;20765;-66
2022/07/13 10:45:46;;;;;;;3.40;1.15;;;22.40;55.50;;;;;;5025755;28;20390;-66
2022/07/13 10:48:30;;;;;;;2.13;1.27;;;22.40;55.20;;;;;;5024916;28;20641;-66
2022/07/13 10:50:57;;;;;;;1.92;0.95;;;22.40;55.20;;;;;;5025079;28;20068;-65
2022/07/13 10:53:37;;;;;;;1.98;1.02;;;22.40;54.90;;;;;;5024565;28;20112;-66
2022/07/13 10:56:03;;;;;;;1.92;1.02;;;22.40;54.90;;;;;;5024928;28;20037;-66
2022/07/13 10:58:35;;;;;;;3.00;0.77;;;22.40;55.00;;;;;;5023130;28;20029;-66
2022/07/13 11:01:02;;;;;;;2.92;1.00;;;22.40;54.60;;;;;;5024857;28;20051;-66
2022/07/13 11:03:35;;;;;;;2.35;1.30;;;22.40;54.50;;;;;;5023151;28;20663;-66
2022/07/13 11:06:17;;;;;;;3.20;0.90;;;22.40;54.90;;;;;;5023745;28;20026;-65
2022/07/13 11:08:43;;;;;;;2.60;0.65;;;22.40;54.10;;;;;;5027515;28;20400;-66
2022/07/13 11:11:12;;;;;;;1.75;0.80;;;22.40;54.10;;;;;;5028307;28;20481;-66
2022/07/13 11:13:38;;;;;;;8.73;1.15;;;22.40;54.30;;;;;;5027624;28;20028;-65
2022/07/13 11:16:05;;;;;;;7.40;1.63;;;22.40;53.50;;;;;;5030132;28;20025;-66
2022/07/13 11:18:32;;;;;;;12.10;1.77;;;22.40;53.90;;;;;;5031566;28;20203;-66
2022/07/13 11:21:05;;;;;;;7.53;1.73;;;22.30;53.50;;;;;;5029372;28;20040;-66
2022/07/13 11:26:51;;;;;;;5.28;1.40;;;22.40;53.60;;;;;;5028254;28;20032;-66
2022/07/13 11:29:29;;;;;;;2.92;1.15;;;22.40;52.60;;;;;;5028947;28;20393;-65
2022/07/13 11:31:55;;;;;;;8.65;1.10;;;22.50;52.90;;;;;;5029705;28;20033;-65
2022/07/13 11:34:21;;;;;;;6.35;1.27;;;22.50;52.70;;;;;;5029339;28;20026;-66
2022/07/13 11:36:46;;;;;;;2.95;1.00;;;22.50;52.60;;;;;;5011521;28;20445;-66
2022/07/13 11:39:26;;;;;;;7.93;1.50;;;22.40;52.90;;;;;;5027536;28;20095;-66
2022/07/13 11:41:53;;;;;;;4.15;0.80;;;22.50;52.90;;;;;;5029116;28;20034;-66
2022/07/13 11:44:23;;;;;;;2.70;0.70;;;22.50;52.50;;;;;;5028204;28;20028;-65
2022/07/13 11:46:48;;;;;;;1.52;0.70;;;22.50;52.20;;;;;;5028124;28;20021;-66
2022/07/13 11:49:14;;;;;;;1.90;0.70;;;22.50;52.50;;;;;;5028256;28;20014;-67
2022/07/13 11:51:42;;;;;;;2.13;0.70;;;22.60;52.00;;;;;;5028653;28;20570;-67
2022/07/13 11:54:08;;;;;;;3.33;0.80;;;22.60;51.80;;;;;;5027741;28;20049;-67
2022/07/13 11:56:34;;;;;;;1.92;0.80;;;22.60;51.90;;;;;;5027588;28;20025;-67
2022/07/13 11:58:59;;;;;;;2.25;0.90;;;22.60;52.10;;;;;;5027015;28;20393;-66
2022/07/13 12:01:25;;;;;;;2.28;0.77;;;22.60;51.60;;;;;;5027239;28;20400;-66
2022/07/13 12:03:51;;;;;;;4.30;0.85;;;22.60;51.90;;;;;;5028870;28;20025;-66
2022/07/13 12:06:17;;;;;;;6.28;1.10;;;22.60;51.80;;;;;;5028317;28;20033;-66
2022/07/13 12:08:43;;;;;;;8.90;1.70;;;22.60;51.70;;;;;;5027944;28;20021;-65
2022/07/13 12:11:18;;;;;;;4.45;1.30;;;22.60;51.80;;;;;;5028859;28;20048;-65
2022/07/13 12:13:44;;;;;;;2.63;1.20;;;22.60;51.60;;;;;;5024419;28;20025;-65
2022/07/13 12:16:11;;;;;;;3.20;0.95;;;22.60;51.50;;;;;;5026759;28;20025;-65
2022/07/13 12:18:56;;;;;;;4.82;0.90;;;22.60;51.40;;;;;;5026128;28;20060;-65
2022/07/13 12:21:21;;;;;;;4.47;1.00;;;22.60;51.50;;;;;;5007955;28;20081;-65
2022/07/13 12:23:50;;;;;;;5.78;1.27;;;22.60;51.40;;;;;;5007896;28;20558;-65
2022/07/13 12:26:15;;;;;;;1.55;0.75;;;22.60;50.90;;;;;;5006503;28;20037;-65
2022/07/13 12:28:44;;;;;;;2.72;1.02;;;22.60;50.80;;;;;;5007800;28;20037;-65
2022/07/13 12:31:09;;;;;;;6.80;1.02;;;22.60;51.40;;;;;;5026912;28;20112;-63
2022/07/13 12:33:42;;;;;;;1.95;1.08;;;22.60;51.10;;;;;;5027509;28;20080;-64
2022/07/13 12:36:08;;;;;;;1.15;1.05;;;22.60;50.70;;;;;;5027953;28;20017;-65
2022/07/13 12:38:34;;;;;;;1.20;0.82;;;22.70;50.50;;;;;;5027057;28;20040;-65
2022/07/13 12:41:01;;;;;;;1.88;0.95;;;22.70;50.20;;;;;;5027774;28;20029;-65
2022/07/13 12:43:28;;;;;;;0.95;0.88;;;22.70;49.80;;;;;;5027451;28;20056;-65
2022/07/13 12:46:01;;;;;;;1.98;0.80;;;22.80;49.80;;;;;;4990073;28;20040;-63
2022/07/13 12:48:31;;;;;;;2.85;0.80;;;22.80;49.20;;;;;;5007566;28;20586;-65
2022/07/13 12:51:05;;;;;;;2.13;1.10;;;22.80;49.00;;;;;;5022117;28;20506;-65
2022/07/13 12:53:49;;;;;;;1.40;0.70;;;22.90;48.90;;;;;;5027867;28;20025;-67
2022/07/13 12:56:19;;;;;;;1.27;0.90;;;22.90;49.00;;;;;;5028203;28;20084;-66
2022/07/13 12:58:47;;;;;;;1.50;1.20;;;22.90;49.00;;;;;;5025778;28;20033;-66